createdAt,value
2019-04-11T00:00:46.078Z,0.00
2019-04-11T00:01:48.566Z,0.00
2019-04-11T00:02:47.070Z,0.00
2019-04-11T00:03:46.061Z,0.00
2019-04-11T00:04:46.334Z,0.00
2019-04-11T00:05:46.025Z,0.00
2019-04-11T00:06:46.012Z,0.00
2019-04-11T00:07:46.740Z,0.00
2019-04-11T00:08:46.029Z,0.00
2019-04-11T00:09:47.808Z,0.00
2019-04-11T00:10:46.849Z,0.00
2019-04-11T00:11:46.172Z,0.00
2019-04-11T00:12:46.391Z,0.00
2019-04-11T00:13:45.952Z,0.00
2019-04-11T00:14:46.907Z,0.00
2019-04-11T00:15:45.911Z,0.00
2019-04-11T00:16:45.901Z,0.00
2019-04-11T00:17:46.021Z,0.00
2019-04-11T00:18:47.053Z,0.00
2019-04-11T00:19:45.949Z,0.00
2019-04-11T00:20:46.455Z,0.00
2019-04-11T00:21:46.769Z,0.00
2019-04-11T00:22:45.888Z,0.00
2019-04-11T00:23:46.101Z,0.00
2019-04-11T00:24:45.808Z,0.00
2019-04-11T00:25:45.813Z,0.00
2019-04-11T00:26:46.582Z,0.00
2019-04-11T00:27:45.790Z,0.00
2019-04-11T00:28:45.866Z,0.00
2019-04-11T00:29:46.887Z,0.00
2019-04-11T00:30:45.745Z,0.00
2019-04-11T00:31:46.960Z,0.00
2019-04-11T00:32:45.751Z,0.00
2019-04-11T00:33:46.641Z,0.00
2019-04-11T00:34:46.918Z,0.00
2019-04-11T00:35:46.024Z,0.00
2019-04-11T00:36:46.377Z,0.00
2019-04-11T00:37:45.678Z,0.00
2019-04-11T00:38:45.781Z,0.00
2019-04-11T00:39:45.856Z,0.00
2019-04-11T00:40:45.874Z,0.00
2019-04-11T00:41:46.031Z,0.00
2019-04-11T00:42:45.624Z,0.00
2019-04-11T00:43:46.804Z,0.00
2019-04-11T00:44:45.641Z,0.00
2019-04-11T00:45:45.665Z,0.00
2019-04-11T00:46:46.643Z,0.00
2019-04-11T00:47:45.566Z,0.00
2019-04-11T00:48:46.076Z,0.00
2019-04-11T00:49:46.447Z,0.00
2019-04-11T00:50:45.536Z,0.00
2019-04-11T00:51:45.553Z,0.00
2019-04-11T00:52:45.548Z,0.00
2019-04-11T00:53:46.514Z,0.00
2019-04-11T00:54:45.493Z,0.00
2019-04-11T00:55:53.599Z,0.00
2019-04-11T00:56:52.703Z,0.00
2019-04-11T00:57:53.092Z,0.00
2019-04-11T00:58:53.999Z,0.00
2019-04-11T00:59:53.026Z,0.00
2019-04-11T01:00:45.518Z,0.00
2019-04-11T01:01:55.100Z,0.00
2019-04-11T01:02:45.539Z,0.00
2019-04-11T01:03:53.704Z,0.00
2019-04-11T01:04:45.443Z,0.00
2019-04-11T01:05:45.726Z,0.00
2019-04-11T01:06:45.387Z,0.00
2019-04-11T01:07:45.474Z,0.00
2019-04-11T01:08:46.052Z,0.00
2019-04-11T01:09:45.439Z,0.00
2019-04-11T01:10:45.624Z,0.00
2019-04-11T01:11:45.810Z,0.00
2019-04-11T01:12:45.299Z,0.00
2019-04-11T01:13:50.891Z,0.00
2019-04-11T01:14:46.922Z,0.00
2019-04-11T01:15:45.261Z,0.00
2019-04-11T01:16:45.251Z,0.00
2019-04-11T01:17:45.474Z,0.00
2019-04-11T01:18:46.454Z,0.00
2019-04-11T01:19:53.201Z,0.00
2019-04-11T01:20:53.697Z,0.00
2019-04-11T01:21:45.203Z,0.00
2019-04-11T01:22:45.207Z,0.00
2019-04-11T01:23:45.182Z,0.00
2019-04-11T01:24:46.054Z,0.00
2019-04-11T01:25:52.785Z,0.00
2019-04-11T01:26:53.770Z,0.00
2019-04-11T01:27:54.335Z,0.00
2019-04-11T01:28:53.784Z,0.00
2019-04-11T01:29:53.715Z,0.00
2019-04-11T01:30:53.705Z,0.00
2019-04-11T01:31:53.855Z,0.00
2019-04-11T01:32:52.719Z,0.00
2019-04-11T01:33:53.932Z,0.00
2019-04-11T01:34:45.059Z,0.00
2019-04-11T01:35:45.728Z,0.00
2019-04-11T01:36:45.134Z,0.00
2019-04-11T01:37:46.073Z,0.00
2019-04-11T01:38:46.285Z,0.00
2019-04-11T01:39:45.338Z,0.00
2019-04-11T01:40:45.642Z,0.00
2019-04-11T01:41:44.978Z,0.00
2019-04-11T01:42:44.971Z,0.00
2019-04-11T01:43:53.431Z,0.00
2019-04-11T01:44:47.335Z,0.00
2019-04-11T01:45:45.561Z,0.00
2019-04-11T01:46:44.944Z,0.00
2019-04-11T01:47:44.947Z,0.00
2019-04-11T01:48:45.843Z,0.00
2019-04-11T01:49:46.020Z,0.00
2019-04-11T01:50:45.257Z,0.00
2019-04-11T01:51:45.566Z,0.00
2019-04-11T01:52:44.898Z,0.00
2019-04-11T01:53:44.945Z,0.00
2019-04-11T01:54:45.932Z,0.00
2019-04-11T01:55:45.093Z,0.00
2019-04-11T01:56:45.395Z,0.00
2019-04-11T01:57:44.811Z,0.00
2019-04-11T01:58:44.805Z,0.00
2019-04-11T01:59:45.810Z,0.00
2019-04-11T02:00:44.797Z,0.00
2019-04-11T02:01:45.187Z,0.00
2019-04-11T02:02:44.755Z,0.00
2019-04-11T02:03:45.602Z,0.00
2019-04-11T02:04:45.952Z,0.00
2019-04-11T02:05:45.343Z,0.00
2019-04-11T02:06:45.805Z,0.00
2019-04-11T02:07:44.902Z,0.00
2019-04-11T02:08:44.695Z,0.00
2019-04-11T02:09:44.703Z,0.00
2019-04-11T02:10:45.317Z,0.00
2019-04-11T02:11:45.686Z,0.00
2019-04-11T02:12:45.599Z,0.00
2019-04-11T02:13:44.639Z,0.00
2019-04-11T02:14:45.841Z,0.00
2019-04-11T02:15:44.646Z,0.00
2019-04-11T02:16:45.350Z,0.00
2019-04-11T02:17:44.633Z,0.00
2019-04-11T02:18:45.669Z,0.00
2019-04-11T02:19:44.792Z,0.00
2019-04-11T02:20:45.194Z,0.00
2019-04-11T02:21:44.555Z,0.00
2019-04-11T02:22:44.545Z,0.00
2019-04-11T02:23:45.477Z,0.00
2019-04-11T02:24:44.526Z,0.00
2019-04-11T02:25:44.936Z,0.00
2019-04-11T02:26:46.850Z,0.00
2019-04-11T02:27:44.487Z,0.00
2019-04-11T02:28:44.666Z,0.00
2019-04-11T02:29:44.816Z,0.00
2019-04-11T02:30:46.462Z,0.00
2019-04-11T02:31:44.652Z,0.00
2019-04-11T02:32:45.450Z,0.00
2019-04-11T02:33:44.427Z,0.00
2019-04-11T02:34:45.989Z,0.00
2019-04-11T02:35:46.386Z,0.00
2019-04-11T02:36:44.935Z,0.00
2019-04-11T02:37:46.353Z,0.00
2019-04-11T02:38:46.786Z,0.00
2019-04-11T02:39:47.125Z,0.00
2019-04-11T02:40:45.457Z,0.00
2019-04-11T02:41:44.671Z,0.00
2019-04-11T02:42:45.661Z,0.00
2019-04-11T02:43:44.716Z,0.00
2019-04-11T02:44:59.710Z,0.00
2019-04-11T02:46:54.437Z,0.00
2019-04-11T02:47:48.172Z,0.00
2019-04-11T02:48:44.937Z,0.00
2019-04-11T02:49:45.568Z,0.00
2019-04-11T02:50:45.732Z,0.00
2019-04-11T02:51:45.043Z,0.00
2019-04-11T02:52:44.456Z,0.00
2019-04-11T02:53:45.081Z,0.00
2019-04-11T02:54:45.173Z,0.00
2019-04-11T02:55:46.030Z,0.00
2019-04-11T02:56:45.565Z,0.00
2019-04-11T02:57:45.823Z,0.00
2019-04-11T02:58:44.381Z,0.00
2019-04-11T02:59:46.282Z,0.00
2019-04-11T03:00:45.042Z,0.00
2019-04-11T03:01:44.141Z,0.00
2019-04-11T03:02:44.607Z,0.00
2019-04-11T03:03:45.515Z,0.00
2019-04-11T03:04:45.854Z,0.00
2019-04-11T03:05:46.263Z,0.00
2019-04-11T03:06:45.660Z,0.00
2019-04-11T03:07:45.730Z,0.00
2019-04-11T03:08:44.482Z,0.00
2019-04-11T03:09:46.249Z,0.00
2019-04-11T03:10:45.509Z,0.00
2019-04-11T03:11:45.109Z,0.00
2019-04-11T03:12:46.012Z,0.00
2019-04-11T03:13:44.374Z,0.00
2019-04-11T03:15:01.916Z,0.00
2019-04-11T03:16:02.127Z,0.00
2019-04-11T03:16:56.253Z,0.00
2019-04-11T03:17:47.868Z,0.00
2019-04-11T03:18:59.205Z,0.00
2019-04-11T03:19:59.357Z,0.00
2019-04-11T03:20:49.771Z,0.00
2019-04-11T03:21:46.900Z,0.00
2019-04-11T03:22:45.330Z,0.00
2019-04-11T03:23:44.908Z,0.00
2019-04-11T03:24:44.110Z,0.00
2019-04-11T03:25:44.942Z,0.00
2019-04-11T03:26:45.558Z,0.00
2019-04-11T03:27:45.170Z,0.00
2019-04-11T03:28:49.057Z,0.00
2019-04-11T03:29:45.281Z,0.00
2019-04-11T03:31:04.140Z,0.00
2019-04-11T03:32:33.027Z,0.00
2019-04-11T03:35:41.226Z,0.00
2019-04-11T03:36:45.376Z,0.00
2019-04-11T03:37:23.456Z,0.00
2019-04-11T03:38:07.629Z,0.00
2019-04-11T03:39:07.622Z,0.00
2019-04-11T03:40:04.508Z,0.00
2019-04-11T03:41:00.457Z,0.00
2019-04-11T03:41:59.911Z,0.00
2019-04-11T03:43:00.312Z,0.00
2019-04-11T03:43:54.082Z,0.00
2019-04-11T03:44:50.215Z,0.00
2019-04-11T03:46:05.243Z,0.00
2019-04-11T03:47:01.293Z,0.00
2019-04-11T03:48:04.378Z,0.00
2019-04-11T03:48:55.823Z,0.00
2019-04-11T03:49:51.056Z,0.00
2019-04-11T03:50:46.223Z,0.00
2019-04-11T03:51:45.387Z,0.00
2019-04-11T03:52:45.052Z,0.00
2019-04-11T03:53:53.667Z,0.00
2019-04-11T03:54:51.319Z,0.00
2019-04-11T03:55:51.675Z,0.00
2019-04-11T03:56:51.732Z,0.00
2019-04-11T03:57:51.784Z,0.00
2019-04-11T03:58:43.882Z,0.00
2019-04-11T03:59:43.838Z,0.00
2019-04-11T04:00:44.549Z,0.00
2019-04-11T04:01:44.466Z,0.00
2019-04-11T04:02:44.438Z,0.00
2019-04-11T04:03:44.691Z,0.00
2019-04-11T04:04:44.157Z,0.00
2019-04-11T04:05:44.589Z,0.00
2019-04-11T04:06:44.020Z,0.00
2019-04-11T04:07:44.351Z,0.00
2019-04-11T04:08:44.483Z,0.00
2019-04-11T04:09:44.048Z,0.00
2019-04-11T04:10:43.711Z,0.00
2019-04-11T04:11:45.045Z,0.00
2019-04-11T04:12:45.191Z,0.00
2019-04-11T04:13:45.398Z,0.00
2019-04-11T04:14:45.269Z,0.00
2019-04-11T04:15:55.729Z,0.00
2019-04-11T04:16:48.305Z,0.00
2019-04-11T04:17:45.582Z,0.00
2019-04-11T04:18:51.712Z,0.00
2019-04-11T04:19:51.994Z,4.00
2019-04-11T04:20:43.882Z,4.00
2019-04-11T04:21:43.507Z,0.00
2019-04-11T04:22:44.082Z,0.00
2019-04-11T04:23:43.486Z,4.00
2019-04-11T04:24:45.444Z,0.00
2019-04-11T04:25:46.688Z,4.00
2019-04-11T04:26:43.276Z,4.00
2019-04-11T04:27:45.028Z,4.00
2019-04-11T04:28:43.176Z,4.00
2019-04-11T04:29:46.741Z,8.00
2019-04-11T04:30:45.328Z,8.00
2019-04-11T04:31:43.174Z,8.00
2019-04-11T04:32:44.957Z,8.00
2019-04-11T04:33:43.226Z,8.00
2019-04-11T04:34:44.351Z,12.00
2019-04-11T04:35:44.755Z,16.00
2019-04-11T04:36:43.101Z,20.00
2019-04-11T04:37:43.869Z,20.00
2019-04-11T04:38:44.549Z,24.00
2019-04-11T04:39:43.568Z,24.00
2019-04-11T04:40:55.506Z,24.00
2019-04-11T04:41:53.084Z,28.00
2019-04-11T04:42:47.919Z,36.00
2019-04-11T04:43:44.474Z,40.00
2019-04-11T04:44:45.169Z,40.00
2019-04-11T04:46:07.475Z,44.00
2019-04-11T04:46:58.211Z,52.00
2019-04-11T04:47:51.448Z,56.00
2019-04-11T04:48:45.477Z,64.00
2019-04-11T04:49:43.706Z,68.00
2019-04-11T04:50:44.616Z,76.00
2019-04-11T04:51:43.684Z,80.00
2019-04-11T04:52:42.988Z,88.00
2019-04-11T04:53:43.092Z,96.00
2019-04-11T04:54:44.363Z,104.00
2019-04-11T04:55:43.628Z,112.00
2019-04-11T04:56:43.715Z,116.00
2019-04-11T04:57:43.454Z,124.00
2019-04-11T04:58:44.372Z,132.00
2019-04-11T04:59:42.831Z,140.00
2019-04-11T05:00:43.668Z,152.00
2019-04-11T05:01:44.258Z,160.00
2019-04-11T05:02:44.144Z,172.00
2019-04-11T05:03:44.503Z,184.00
2019-04-11T05:04:43.652Z,192.00
2019-04-11T05:05:44.301Z,200.00
2019-04-11T05:06:46.692Z,212.00
2019-04-11T05:07:46.015Z,224.00
2019-04-11T05:08:43.126Z,236.00
2019-04-11T05:09:42.775Z,252.00
2019-04-11T05:10:42.743Z,260.00
2019-04-11T05:11:42.703Z,276.00
2019-04-11T05:12:43.911Z,288.00
2019-04-11T05:13:45.150Z,300.00
2019-04-11T05:14:43.672Z,312.00
2019-04-11T05:15:43.682Z,332.00
2019-04-11T05:16:44.031Z,344.00
2019-04-11T05:17:44.411Z,360.00
2019-04-11T05:18:42.643Z,372.00
2019-04-11T05:19:42.614Z,388.00
2019-04-11T05:20:42.601Z,404.00
2019-04-11T05:21:43.605Z,416.00
2019-04-11T05:22:43.640Z,432.00
2019-04-11T05:23:42.712Z,448.00
2019-04-11T05:24:43.384Z,464.00
2019-04-11T05:25:42.588Z,480.00
2019-04-11T05:26:50.402Z,500.00
2019-04-11T05:27:51.160Z,516.00
2019-04-11T05:28:51.559Z,532.00
2019-04-11T05:29:51.571Z,548.00
2019-04-11T05:30:42.508Z,564.00
2019-04-11T05:31:42.777Z,584.00
2019-04-11T05:32:42.563Z,596.00
2019-04-11T05:33:43.469Z,612.00
2019-04-11T05:34:43.500Z,628.00
2019-04-11T05:35:43.705Z,644.00
2019-04-11T05:36:42.861Z,660.00
2019-04-11T05:37:42.941Z,680.00
2019-04-11T05:38:42.406Z,696.00
2019-04-11T05:39:42.510Z,712.00
2019-04-11T05:40:42.421Z,732.00
2019-04-11T05:41:45.365Z,748.00
2019-04-11T05:42:42.370Z,768.00
2019-04-11T05:43:42.377Z,792.00
2019-04-11T05:44:43.180Z,808.00
2019-04-11T05:45:42.366Z,828.00
2019-04-11T05:46:53.241Z,848.00
2019-04-11T05:47:43.506Z,864.00
2019-04-11T05:48:43.003Z,888.00
2019-04-11T05:49:43.508Z,916.00
2019-04-11T05:50:45.427Z,944.00
2019-04-11T05:51:47.120Z,964.00
2019-04-11T05:52:42.252Z,980.00
2019-04-11T05:53:42.243Z,992.00
2019-04-11T05:54:46.425Z,1008.00
2019-04-11T05:55:45.816Z,1024.00
2019-04-11T05:56:42.208Z,1052.00
2019-04-11T05:57:43.100Z,1072.00
2019-04-11T05:58:45.171Z,1084.00
2019-04-11T05:59:43.335Z,1112.00
2019-04-11T06:00:42.270Z,1136.00
2019-04-11T06:01:42.493Z,1156.00
2019-04-11T06:02:43.457Z,1176.00
2019-04-11T06:03:43.837Z,1196.00
2019-04-11T06:04:42.730Z,1216.00
2019-04-11T06:05:43.131Z,1232.00
2019-04-11T06:06:42.097Z,1252.00
2019-04-11T06:07:46.205Z,1264.00
2019-04-11T06:08:44.170Z,1284.00
2019-04-11T06:09:42.097Z,1312.00
2019-04-11T06:10:43.666Z,1332.00
2019-04-11T06:11:43.120Z,1340.00
2019-04-11T06:12:42.034Z,1372.00
2019-04-11T06:13:42.774Z,1400.00
2019-04-11T06:14:42.011Z,1424.00
2019-04-11T06:15:43.925Z,1456.00
2019-04-11T06:16:47.280Z,1460.00
2019-04-11T06:17:42.984Z,1460.00
2019-04-11T06:18:45.078Z,1480.00
2019-04-11T06:19:41.966Z,1476.00
2019-04-11T06:20:43.046Z,1500.00
2019-04-11T06:21:42.244Z,1540.00
2019-04-11T06:22:42.197Z,1572.00
2019-04-11T06:23:41.916Z,1596.00
2019-04-11T06:24:42.617Z,1608.00
2019-04-11T06:25:44.537Z,1620.00
2019-04-11T06:26:42.883Z,1640.00
2019-04-11T06:27:42.860Z,1640.00
2019-04-11T06:28:42.391Z,1640.00
2019-04-11T06:29:43.072Z,1672.00
2019-04-11T06:30:42.327Z,1700.00
2019-04-11T06:31:42.339Z,1720.00
2019-04-11T06:32:41.818Z,1740.00
2019-04-11T06:33:42.852Z,1760.00
2019-04-11T06:34:41.833Z,1772.00
2019-04-11T06:35:42.072Z,1788.00
2019-04-11T06:36:41.779Z,1784.00
2019-04-11T06:37:41.801Z,1804.00
2019-04-11T06:38:42.812Z,1816.00
2019-04-11T06:39:41.745Z,1852.00
2019-04-11T06:40:41.915Z,1872.00
2019-04-11T06:41:42.958Z,1896.00
2019-04-11T06:42:41.727Z,1932.00
2019-04-11T06:43:42.583Z,1964.00
2019-04-11T06:44:41.741Z,1992.00
2019-04-11T06:45:41.876Z,2024.00
2019-04-11T06:46:51.695Z,2032.00
2019-04-11T06:47:43.104Z,2024.00
2019-04-11T06:48:49.635Z,2044.00
2019-04-11T06:49:49.381Z,2072.00
2019-04-11T06:50:41.706Z,2060.00
2019-04-11T06:51:41.643Z,2064.00
2019-04-11T06:52:41.647Z,2064.00
2019-04-11T06:53:42.072Z,2084.00
2019-04-11T06:54:41.667Z,2128.00
2019-04-11T06:55:42.667Z,2184.00
2019-04-11T06:56:41.592Z,2212.00
2019-04-11T06:57:42.423Z,2252.00
2019-04-11T06:58:41.646Z,2268.00
2019-04-11T06:59:42.827Z,2264.00
2019-04-11T07:00:41.526Z,2324.00
2019-04-11T07:01:42.521Z,2432.00
2019-04-11T07:02:41.520Z,2512.00
2019-04-11T07:03:41.554Z,2452.00
2019-04-11T07:04:41.882Z,2420.00
2019-04-11T07:05:42.636Z,2376.00
2019-04-11T07:06:41.888Z,2396.00
2019-04-11T07:07:41.497Z,2436.00
2019-04-11T07:08:42.623Z,2496.00
2019-04-11T07:09:41.465Z,2548.00
2019-04-11T07:10:42.467Z,2576.00
2019-04-11T07:11:42.597Z,2532.00
2019-04-11T07:12:42.672Z,2544.00
2019-04-11T07:13:41.377Z,2596.00
2019-04-11T07:14:41.368Z,2560.00
2019-04-11T07:15:41.355Z,2600.00
2019-04-11T07:16:42.569Z,2632.00
2019-04-11T07:17:41.355Z,2648.00
2019-04-11T07:18:41.325Z,2664.00
2019-04-11T07:19:41.540Z,2688.00
2019-04-11T07:20:41.442Z,2664.00
2019-04-11T07:21:41.915Z,2688.00
2019-04-11T07:22:41.327Z,2680.00
2019-04-11T07:23:51.191Z,2760.00
2019-04-11T07:24:41.260Z,2820.00
2019-04-11T07:25:48.785Z,2848.00
2019-04-11T07:26:41.637Z,2848.00
2019-04-11T07:27:41.228Z,2812.00
2019-04-11T07:28:41.636Z,2800.00
2019-04-11T07:29:42.176Z,2832.00
2019-04-11T07:30:41.691Z,2796.00
2019-04-11T07:31:41.185Z,2824.00
2019-04-11T07:32:41.172Z,2840.00
2019-04-11T07:33:41.181Z,2868.00
2019-04-11T07:34:41.285Z,2944.00
2019-04-11T07:35:42.012Z,2984.00
2019-04-11T07:36:41.147Z,3012.00
2019-04-11T07:37:41.188Z,3036.00
2019-04-11T07:38:41.199Z,3048.00
2019-04-11T07:39:44.498Z,3080.00
2019-04-11T07:40:41.307Z,3172.00
2019-04-11T07:41:41.763Z,3196.00
2019-04-11T07:42:41.236Z,3172.00
2019-04-11T07:43:41.189Z,3144.00
2019-04-11T07:44:41.084Z,3136.00
2019-04-11T07:45:41.793Z,3180.00
2019-04-11T07:46:41.071Z,3208.00
2019-04-11T07:47:41.601Z,3260.00
2019-04-11T07:48:41.001Z,3288.00
2019-04-11T07:49:41.032Z,3324.00
2019-04-11T07:50:42.191Z,3280.00
2019-04-11T07:51:40.985Z,3292.00
2019-04-11T07:52:40.959Z,3324.00
2019-04-11T07:53:40.949Z,3364.00
2019-04-11T07:54:41.065Z,3388.00
2019-04-11T07:55:42.229Z,3416.00
2019-04-11T07:56:41.914Z,3476.00
2019-04-11T07:57:40.904Z,3496.00
2019-04-11T07:58:42.026Z,3512.00
2019-04-11T07:59:41.893Z,3508.00
2019-04-11T08:00:44.923Z,3488.00
2019-04-11T08:01:42.521Z,3496.00
2019-04-11T08:02:40.851Z,3488.00
2019-04-11T08:03:40.840Z,3492.00
2019-04-11T08:04:40.876Z,3528.00
2019-04-11T08:05:41.055Z,3544.00
2019-04-11T08:06:41.158Z,3612.00
2019-04-11T08:07:40.820Z,3632.00
2019-04-11T08:08:41.219Z,3644.00
2019-04-11T08:09:41.590Z,3648.00
2019-04-11T08:10:41.475Z,3648.00
2019-04-11T08:11:40.754Z,3636.00
2019-04-11T08:12:41.436Z,3648.00
2019-04-11T08:13:40.825Z,3664.00
2019-04-11T08:14:40.725Z,3736.00
2019-04-11T08:15:41.858Z,3804.00
2019-04-11T08:16:40.708Z,3804.00
2019-04-11T08:17:42.934Z,3832.00
2019-04-11T08:18:41.137Z,3872.00
2019-04-11T08:19:40.816Z,3924.00
2019-04-11T08:20:41.580Z,3932.00
2019-04-11T08:21:40.644Z,3892.00
2019-04-11T08:22:41.316Z,3892.00
2019-04-11T08:23:40.621Z,3932.00
2019-04-11T08:24:40.780Z,3932.00
2019-04-11T08:25:41.789Z,3936.00
2019-04-11T08:26:40.664Z,3948.00
2019-04-11T08:27:52.093Z,3964.00
2019-04-11T08:28:41.565Z,4000.00
2019-04-11T08:29:40.567Z,4000.00
2019-04-11T08:30:41.526Z,3988.00
2019-04-11T08:31:40.566Z,3988.00
2019-04-11T08:32:40.529Z,3980.00
2019-04-11T08:33:40.597Z,3980.00
2019-04-11T08:34:41.629Z,3988.00
2019-04-11T08:35:40.601Z,3980.00
2019-04-11T08:36:40.504Z,3964.00
2019-04-11T08:37:40.467Z,3976.00
2019-04-11T08:38:40.639Z,4012.00
2019-04-11T08:39:41.490Z,4068.00
2019-04-11T08:40:40.441Z,4092.00
2019-04-11T08:41:40.448Z,4172.00
2019-04-11T08:42:40.778Z,4272.00
2019-04-11T08:43:41.484Z,4344.00
2019-04-11T08:44:40.414Z,4360.00
2019-04-11T08:45:40.418Z,4472.00
2019-04-11T08:46:40.394Z,5060.00
2019-04-11T08:47:46.996Z,5276.00
2019-04-11T08:48:42.780Z,5412.00
2019-04-11T08:49:41.550Z,5932.00
2019-04-11T08:50:40.823Z,5472.00
2019-04-11T08:51:41.160Z,4860.00
2019-04-11T08:52:40.415Z,4832.00
2019-04-11T08:53:40.645Z,4904.00
2019-04-11T08:54:40.283Z,4996.00
2019-04-11T08:55:49.746Z,5008.00
2019-04-11T08:59:00.642Z,4996.00
2019-04-11T09:00:08.219Z,5244.00
2019-04-11T09:01:00.677Z,4300.00
2019-04-11T09:02:08.711Z,5876.00
2019-04-11T09:03:07.321Z,5356.00
2019-04-11T09:04:05.202Z,5520.00
2019-04-11T09:05:06.951Z,5588.00
2019-04-11T09:06:02.716Z,5616.00
2019-04-11T09:06:59.686Z,5696.00
2019-04-11T09:08:00.179Z,5692.00
2019-04-11T09:08:59.715Z,5932.00
2019-04-11T09:09:59.861Z,6060.00
2019-04-11T09:11:00.188Z,6668.00
2019-04-11T09:12:00.403Z,8080.00
2019-04-11T09:13:00.567Z,8188.00
2019-04-11T09:13:59.814Z,8412.00
2019-04-11T09:15:07.077Z,11836.00
2019-04-11T09:15:59.529Z,11136.00
2019-04-11T09:17:08.546Z,10208.00
2019-04-11T09:18:09.522Z,46816.00
2019-04-11T09:19:01.098Z,64416.00
2019-04-11T09:20:08.047Z,61344.00
2019-04-11T09:21:07.831Z,64736.00
2019-04-11T09:22:08.837Z,66816.00
2019-04-11T09:23:07.007Z,68608.00
2019-04-11T09:24:08.255Z,62976.00
2019-04-11T09:25:07.299Z,63712.00
2019-04-11T09:26:07.586Z,63744.00
2019-04-11T09:27:08.676Z,62816.00
2019-04-11T09:28:06.998Z,60672.00
2019-04-11T09:28:59.838Z,59648.00
2019-04-11T09:29:59.376Z,59424.00
2019-04-11T09:30:59.363Z,62368.00
2019-04-11T09:32:00.130Z,64928.00
2019-04-11T09:33:00.327Z,64160.00
2019-04-11T09:33:59.561Z,67392.00
2019-04-11T09:34:59.808Z,69760.00
2019-04-11T09:35:59.769Z,53984.00
2019-04-11T09:36:59.306Z,70016.00
2019-04-11T09:38:00.168Z,69152.00
2019-04-11T09:38:59.290Z,65408.00
2019-04-11T09:39:59.389Z,63936.00
2019-04-11T09:41:00.445Z,63776.00
2019-04-11T09:41:59.253Z,65408.00
2019-04-11T09:42:59.665Z,61184.00
2019-04-11T09:44:00.157Z,64672.00
2019-04-11T09:44:59.432Z,65312.00
2019-04-11T09:45:59.773Z,47904.00
2019-04-11T09:46:59.242Z,42816.00
2019-04-11T09:48:08.513Z,63424.00
2019-04-11T09:49:00.181Z,62944.00
2019-04-11T09:50:00.058Z,62336.00
2019-04-11T09:50:59.150Z,63168.00
2019-04-11T09:52:00.329Z,61120.00
2019-04-11T09:52:59.161Z,59264.00
2019-04-11T09:53:59.250Z,61024.00
2019-04-11T09:54:59.110Z,65376.00
2019-04-11T09:55:59.105Z,67424.00
2019-04-11T09:57:00.136Z,72320.00
2019-04-11T09:58:00.129Z,67040.00
2019-04-11T09:59:00.187Z,54048.00
2019-04-11T09:59:59.056Z,50144.00
2019-04-11T10:00:59.440Z,64544.00
2019-04-11T10:02:00.232Z,63008.00
2019-04-11T10:02:59.024Z,65344.00
2019-04-11T10:03:59.465Z,62976.00
2019-04-11T10:05:01.374Z,63200.00
2019-04-11T10:05:58.992Z,64224.00
2019-04-11T10:06:59.196Z,64608.00
2019-04-11T10:08:00.008Z,63680.00
2019-04-11T10:08:59.763Z,68160.00
2019-04-11T10:10:00.150Z,71136.00
2019-04-11T10:10:59.655Z,68288.00
2019-04-11T10:11:59.122Z,69184.00
2019-04-11T10:12:58.923Z,67232.00
2019-04-11T10:13:59.566Z,52288.00
2019-04-11T10:14:58.901Z,23328.00
2019-04-11T10:15:59.775Z,8476.00
2019-04-11T10:17:00.166Z,7844.00
2019-04-11T10:17:59.075Z,7596.00
2019-04-11T10:18:59.808Z,7660.00
2019-04-11T10:20:00.038Z,7812.00
2019-04-11T10:20:59.281Z,7932.00
2019-04-11T10:21:58.849Z,8376.00
2019-04-11T10:22:58.833Z,9040.00
2019-04-11T10:23:58.990Z,9804.00
2019-04-11T10:24:58.931Z,8412.00
2019-04-11T10:25:59.373Z,8432.00
2019-04-11T10:26:58.854Z,8272.00
2019-04-11T10:27:58.767Z,7752.00
2019-04-11T10:28:58.771Z,7432.00
2019-04-11T10:29:59.030Z,7268.00
2019-04-11T10:30:58.926Z,7168.00
2019-04-11T10:31:59.051Z,7036.00
2019-04-11T10:32:59.386Z,7032.00
2019-04-11T10:33:59.546Z,6980.00
2019-04-11T10:34:59.690Z,6912.00
2019-04-11T10:35:58.950Z,6992.00
2019-04-11T10:36:59.177Z,6948.00
2019-04-11T10:37:58.669Z,6992.00
2019-04-11T10:38:58.660Z,7020.00
2019-04-11T10:39:59.822Z,6980.00
2019-04-11T10:40:58.759Z,7000.00
2019-04-11T10:41:58.648Z,6960.00
2019-04-11T10:42:58.641Z,6964.00
2019-04-11T10:43:59.437Z,6984.00
2019-04-11T10:44:58.619Z,6972.00
2019-04-11T10:45:58.849Z,7028.00
2019-04-11T10:46:59.774Z,6988.00
2019-04-11T10:47:58.564Z,6908.00
2019-04-11T10:48:58.545Z,7052.00
2019-04-11T10:49:58.773Z,6956.00
2019-04-11T10:50:58.541Z,6888.00
2019-04-11T10:51:58.519Z,7044.00
2019-04-11T10:52:58.553Z,6728.00
2019-04-11T10:53:59.594Z,7024.00
2019-04-11T10:54:58.483Z,7064.00
2019-04-11T10:55:58.487Z,7084.00
2019-04-11T10:56:58.454Z,7112.00
2019-04-11T10:57:58.451Z,6988.00
2019-04-11T10:58:59.514Z,6852.00
2019-04-11T10:59:58.689Z,6816.00
2019-04-11T11:00:58.451Z,6784.00
2019-04-11T11:01:58.404Z,6780.00
2019-04-11T11:02:58.408Z,6740.00
2019-04-11T11:03:59.021Z,6748.00
2019-04-11T11:04:59.028Z,6732.00
2019-04-11T11:05:59.581Z,6720.00
2019-04-11T11:06:58.416Z,6732.00
2019-04-11T11:07:59.266Z,6720.00
2019-04-11T11:08:58.328Z,6704.00
2019-04-11T11:09:58.758Z,6684.00
2019-04-11T11:10:58.339Z,6676.00
2019-04-11T11:11:58.844Z,6688.00
2019-04-11T11:12:59.399Z,6688.00
2019-04-11T11:13:58.449Z,6736.00
2019-04-11T11:14:58.812Z,6776.00
2019-04-11T11:15:58.283Z,6760.00
2019-04-11T11:16:58.886Z,6724.00
2019-04-11T11:18:31.921Z,6660.00
2019-04-11T11:19:26.223Z,6572.00
2019-04-11T11:20:12.042Z,6524.00
2019-04-11T11:21:02.291Z,6448.00
2019-04-11T11:22:00.444Z,6416.00
2019-04-11T11:22:58.177Z,6488.00
2019-04-11T11:23:58.588Z,6516.00
2019-04-11T11:24:58.155Z,6512.00
2019-04-11T11:25:58.499Z,6484.00
2019-04-11T11:27:00.034Z,6456.00
2019-04-11T11:27:58.149Z,6412.00
2019-04-11T11:29:00.512Z,6380.00
2019-04-11T11:30:01.635Z,6348.00
2019-04-11T11:30:58.472Z,6392.00
2019-04-11T11:31:58.137Z,6392.00
2019-04-11T11:32:58.215Z,6384.00
2019-04-11T11:33:58.819Z,6376.00
2019-04-11T11:34:59.032Z,6328.00
2019-04-11T11:36:01.060Z,6280.00
2019-04-11T11:36:58.609Z,6224.00
2019-04-11T11:37:58.033Z,6220.00
2019-04-11T11:38:58.393Z,6212.00
2019-04-11T11:40:02.729Z,6216.00
2019-04-11T11:40:59.023Z,6220.00
2019-04-11T11:41:57.985Z,6232.00
2019-04-11T11:42:58.769Z,6208.00
2019-04-11T11:43:59.194Z,6156.00
2019-04-11T11:44:57.939Z,6180.00
2019-04-11T11:45:58.919Z,6112.00
2019-04-11T11:47:00.796Z,6192.00
2019-04-11T11:47:59.676Z,6164.00
2019-04-11T11:48:59.707Z,6120.00
2019-04-11T11:50:01.566Z,6072.00
2019-04-11T11:50:59.177Z,6052.00
2019-04-11T11:51:58.463Z,6008.00
2019-04-11T11:52:57.877Z,6012.00
2019-04-11T11:53:57.834Z,6028.00
2019-04-11T11:54:57.822Z,6040.00
2019-04-11T11:55:57.952Z,5984.00
2019-04-11T11:56:58.228Z,5868.00
2019-04-11T11:57:57.819Z,5932.00
2019-04-11T11:58:59.306Z,5872.00
2019-04-11T11:59:58.739Z,5852.00
2019-04-11T12:01:01.174Z,5796.00
2019-04-11T12:01:58.764Z,5780.00
2019-04-11T12:02:58.918Z,5808.00
2019-04-11T12:04:00.512Z,5848.00
2019-04-11T12:04:58.714Z,5864.00
2019-04-11T12:05:59.065Z,5800.00
2019-04-11T12:07:02.090Z,5772.00
2019-04-11T12:07:59.256Z,5800.00
2019-04-11T12:08:58.219Z,5788.00
2019-04-11T12:11:26.133Z,5744.00
2019-04-11T12:12:24.889Z,5724.00
2019-04-11T12:13:24.859Z,5692.00
2019-04-11T12:14:24.827Z,5700.00
2019-04-11T12:15:26.837Z,5712.00
2019-04-11T12:16:25.924Z,5676.00
2019-04-11T12:17:24.938Z,5644.00
2019-04-11T12:18:24.794Z,5740.00
2019-04-11T12:19:24.873Z,5752.00
2019-04-11T12:20:32.307Z,5800.00
2019-04-11T12:21:27.842Z,5828.00
2019-04-11T12:22:24.780Z,5764.00
2019-04-11T12:23:25.902Z,5932.00
2019-04-11T12:24:25.249Z,6116.00
2019-04-11T12:25:25.098Z,6132.00
2019-04-11T12:26:28.797Z,6012.00
2019-04-11T12:27:26.838Z,5892.00
2019-04-11T12:28:25.686Z,5736.00
2019-04-11T12:29:24.682Z,5612.00
2019-04-11T12:30:29.155Z,5520.00
2019-04-11T12:31:25.966Z,5528.00
2019-04-11T12:32:24.642Z,5516.00
2019-04-11T12:33:25.661Z,5508.00
2019-04-11T12:34:24.609Z,5504.00
2019-04-11T12:35:25.858Z,5512.00
2019-04-11T12:36:24.586Z,5524.00
2019-04-11T12:37:25.285Z,5552.00
2019-04-11T12:38:25.208Z,5596.00